sensor_id;sensor_type;location;lat;lon;timestamp;pressure;altitude;pressure_sealevel;temperature;humidity
20009;BME280;10165;42.662;23.260;2023-02-12T00:02:02;95056.16;;;2.57;35.68
20009;BME280;10165;42.662;23.260;2023-02-12T00:04:30;95053.06;;;2.39;35.77
20009;BME280;10165;42.662;23.260;2023-02-12T00:06:57;95067.22;;;2.64;35.75
20009;BME280;10165;42.662;23.260;2023-02-12T00:09:24;95067.75;;;2.56;35.64
20009;BME280;10165;42.662;23.260;2023-02-12T00:11:50;95057.38;;;2.00;36.39
20009;BME280;10165;42.662;23.260;2023-02-12T00:14:17;95076.56;;;2.26;35.83
20009;BME280;10165;42.662;23.260;2023-02-12T00:16:44;95075.19;;;2.44;35.94
20009;BME280;10165;42.662;23.260;2023-02-12T00:19:11;95066.72;;;2.52;36.11
20009;BME280;10165;42.662;23.260;2023-02-12T00:21:37;95059.06;;;2.60;35.59
20009;BME280;10165;42.662;23.260;2023-02-12T00:24:04;95056.28;;;2.80;35.98
20009;BME280;10165;42.662;23.260;2023-02-12T00:26:31;95062.25;;;3.01;35.27
20009;BME280;10165;42.662;23.260;2023-02-12T00:28:58;95056.34;;;2.75;35.30
20009;BME280;10165;42.662;23.260;2023-02-12T00:31:26;95055.19;;;2.37;36.08
20009;BME280;10165;42.662;23.260;2023-02-12T00:33:54;95051.66;;;2.57;35.45
20009;BME280;10165;42.662;23.260;2023-02-12T00:36:23;95047.16;;;2.68;35.68
20009;BME280;10165;42.662;23.260;2023-02-12T00:38:52;95042.44;;;2.60;35.52
20009;BME280;10165;42.662;23.260;2023-02-12T00:41:19;95040.78;;;2.69;35.51
20009;BME280;10165;42.662;23.260;2023-02-12T00:43:46;95021.44;;;2.88;36.29
20009;BME280;10165;42.662;23.260;2023-02-12T00:46:14;95013.34;;;3.48;34.47
20009;BME280;10165;42.662;23.260;2023-02-12T00:48:41;95017.28;;;2.77;34.90
20009;BME280;10165;42.662;23.260;2023-02-12T00:51:08;95015.91;;;2.36;36.68
20009;BME280;10165;42.662;23.260;2023-02-12T00:53:35;95018.72;;;2.50;36.17
20009;BME280;10165;42.662;23.260;2023-02-12T00:56:01;95020.59;;;2.49;36.26
20009;BME280;10165;42.662;23.260;2023-02-12T00:58:28;95009.81;;;2.40;37.26
20009;BME280;10165;42.662;23.260;2023-02-12T01:00:55;95001.13;;;2.40;36.81
20009;BME280;10165;42.662;23.260;2023-02-12T01:03:22;94995.56;;;2.47;36.68
20009;BME280;10165;42.662;23.260;2023-02-12T01:05:49;94997.75;;;2.78;36.51
20009;BME280;10165;42.662;23.260;2023-02-12T01:08:16;94989.31;;;2.22;36.37
20009;BME280;10165;42.662;23.260;2023-02-12T01:10:43;94993.22;;;2.40;36.61
20009;BME280;10165;42.662;23.260;2023-02-12T01:13:14;94993.53;;;2.28;37.22
20009;BME280;10165;42.662;23.260;2023-02-12T01:15:40;94995.13;;;2.19;37.47
20009;BME280;10165;42.662;23.260;2023-02-12T01:18:07;94994.09;;;2.25;37.79
20009;BME280;10165;42.662;23.260;2023-02-12T01:20:34;94995.38;;;2.23;37.76
20009;BME280;10165;42.662;23.260;2023-02-12T01:23:01;94997.22;;;2.27;37.76
20009;BME280;10165;42.662;23.260;2023-02-12T01:25:28;95009.53;;;1.68;38.36
20009;BME280;10165;42.662;23.260;2023-02-12T01:27:55;95009.25;;;2.49;38.25
20009;BME280;10165;42.662;23.260;2023-02-12T01:30:22;95013.50;;;2.39;37.82
20009;BME280;10165;42.662;23.260;2023-02-12T01:32:49;95019.53;;;2.50;38.31
20009;BME280;10165;42.662;23.260;2023-02-12T01:35:16;95016.25;;;2.14;37.95
20009;BME280;10165;42.662;23.260;2023-02-12T01:37:43;95018.19;;;1.83;38.84
20009;BME280;10165;42.662;23.260;2023-02-12T01:40:11;95011.03;;;1.99;39.61
20009;BME280;10165;42.662;23.260;2023-02-12T01:42:40;95014.13;;;2.11;39.04
20009;BME280;10165;42.662;23.260;2023-02-12T01:47:40;95000.97;;;2.16;38.75
20009;BME280;10165;42.662;23.260;2023-02-12T01:50:11;94996.78;;;2.10;39.41
20009;BME280;10165;42.662;23.260;2023-02-12T01:52:41;94997.44;;;2.36;38.75
20009;BME280;10165;42.662;23.260;2023-02-12T01:55:09;94978.94;;;2.95;37.90
20009;BME280;10165;42.662;23.260;2023-02-12T01:57:40;94971.38;;;2.78;37.83
20009;BME280;10165;42.662;23.260;2023-02-12T02:00:15;94986.66;;;2.37;39.29
20009;BME280;10165;42.662;23.260;2023-02-12T02:02:44;94988.91;;;2.54;38.62
20009;BME280;10165;42.662;23.260;2023-02-12T02:05:14;94996.25;;;2.62;38.62
20009;BME280;10165;42.662;23.260;2023-02-12T02:07:44;94985.81;;;2.91;38.08
20009;BME280;10165;42.662;23.260;2023-02-12T02:10:11;94985.31;;;2.40;38.68
20009;BME280;10165;42.662;23.260;2023-02-12T02:12:38;94996.53;;;2.61;38.78
20009;BME280;10165;42.662;23.260;2023-02-12T02:15:25;95001.03;;;2.60;38.82
20009;BME280;10165;42.662;23.260;2023-02-12T02:23:54;94981.31;;;2.48;39.21
20009;BME280;10165;42.662;23.260;2023-02-12T02:26:53;94986.97;;;2.26;39.88
20009;BME280;10165;42.662;23.260;2023-02-12T02:35:04;94980.53;;;1.83;41.71
20009;BME280;10165;42.662;23.260;2023-02-12T02:37:53;94980.13;;;2.20;40.87
20009;BME280;10165;42.662;23.260;2023-02-12T02:40:24;94977.56;;;2.00;41.38
20009;BME280;10165;42.662;23.260;2023-02-12T02:43:03;94990.53;;;2.50;41.33
20009;BME280;10165;42.662;23.260;2023-02-12T02:45:41;94998.50;;;2.40;41.75
20009;BME280;10165;42.662;23.260;2023-02-12T02:48:21;94982.81;;;2.64;41.47
20009;BME280;10165;42.662;23.260;2023-02-12T02:51:25;94987.31;;;3.02;40.95
20009;BME280;10165;42.662;23.260;2023-02-12T02:56:26;94988.75;;;2.40;41.75
20009;BME280;10165;42.662;23.260;2023-02-12T02:59:00;94982.69;;;2.35;41.46
20009;BME280;10165;42.662;23.260;2023-02-12T03:01:35;94983.16;;;2.52;41.68
20009;BME280;10165;42.662;23.260;2023-02-12T03:04:05;94978.28;;;2.15;42.76
20009;BME280;10165;42.662;23.260;2023-02-12T03:06:42;94985.09;;;2.31;42.47
20009;BME280;10165;42.662;23.260;2023-02-12T03:09:19;94973.25;;;2.73;41.80
20009;BME280;10165;42.662;23.260;2023-02-12T03:11:48;94993.38;;;2.59;41.78
20009;BME280;10165;42.662;23.260;2023-02-12T03:14:36;94989.81;;;2.34;42.64
20009;BME280;10165;42.662;23.260;2023-02-12T03:17:13;94984.59;;;2.73;42.38
20009;BME280;10165;42.662;23.260;2023-02-12T03:19:44;94986.41;;;2.78;42.34
20009;BME280;10165;42.662;23.260;2023-02-12T03:22:19;94988.09;;;2.64;42.47
20009;BME280;10165;42.662;23.260;2023-02-12T03:24:52;94987.00;;;2.65;42.74
20009;BME280;10165;42.662;23.260;2023-02-12T03:27:31;94979.44;;;2.92;42.45
20009;BME280;10165;42.662;23.260;2023-02-12T03:29:59;94965.78;;;2.85;42.52
20009;BME280;10165;42.662;23.260;2023-02-12T03:35:21;94963.19;;;2.31;43.29
20009;BME280;10165;42.662;23.260;2023-02-12T03:41:08;94968.59;;;2.99;43.21
20009;BME280;10165;42.662;23.260;2023-02-12T03:43:58;94968.88;;;2.97;42.75
20009;BME280;10165;42.662;23.260;2023-02-12T03:46:40;94970.09;;;2.76;43.42
20009;BME280;10165;42.662;23.260;2023-02-12T03:49:26;94961.63;;;2.79;43.33
20009;BME280;10165;42.662;23.260;2023-02-12T03:51:54;94965.41;;;3.02;42.83
20009;BME280;10165;42.662;23.260;2023-02-12T03:54:21;94948.56;;;2.98;42.66
20009;BME280;10165;42.662;23.260;2023-02-12T03:59:19;94968.75;;;2.73;43.59
20009;BME280;10165;42.662;23.260;2023-02-12T04:01:47;94974.63;;;3.04;43.28
20009;BME280;10165;42.662;23.260;2023-02-12T04:04:16;94973.53;;;3.10;42.51
20009;BME280;10165;42.662;23.260;2023-02-12T04:06:45;94965.78;;;3.19;41.76
20009;BME280;10165;42.662;23.260;2023-02-12T04:09:13;94958.75;;;3.09;42.42
20009;BME280;10165;42.662;23.260;2023-02-12T04:11:53;94958.31;;;3.31;42.27
20009;BME280;10165;42.662;23.260;2023-02-12T04:17:49;94967.00;;;3.31;41.51
20009;BME280;10165;42.662;23.260;2023-02-12T04:20:36;94975.72;;;3.32;41.47
20009;BME280;10165;42.662;23.260;2023-02-12T04:23:25;94977.91;;;3.25;41.08
20009;BME280;10165;42.662;23.260;2023-02-12T04:26:19;94979.63;;;3.06;41.38
20009;BME280;10165;42.662;23.260;2023-02-12T04:31:39;94976.69;;;3.12;40.94
20009;BME280;10165;42.662;23.260;2023-02-12T04:34:28;94989.47;;;3.58;40.85
20009;BME280;10165;42.662;23.260;2023-02-12T04:37:03;94986.06;;;3.57;40.80
20009;BME280;10165;42.662;23.260;2023-02-12T04:39:33;94981.25;;;3.02;41.40
20009;BME280;10165;42.662;23.260;2023-02-12T04:42:02;94992.47;;;3.51;41.10
20009;BME280;10165;42.662;23.260;2023-02-12T04:44:36;94990.31;;;3.82;40.77
20009;BME280;10165;42.662;23.260;2023-02-12T04:47:03;94993.19;;;3.57;41.06
20009;BME280;10165;42.662;23.260;2023-02-12T04:49:30;94996.63;;;3.86;40.41
20009;BME280;10165;42.662;23.260;2023-02-12T04:51:57;94994.59;;;4.02;40.32
20009;BME280;10165;42.662;23.260;2023-02-12T04:54:24;95007.63;;;3.35;40.73
20009;BME280;10165;42.662;23.260;2023-02-12T04:56:50;95005.31;;;3.29;41.39
20009;BME280;10165;42.662;23.260;2023-02-12T04:59:17;95010.06;;;3.61;40.60
20009;BME280;10165;42.662;23.260;2023-02-12T05:01:44;95018.88;;;3.51;40.90
20009;BME280;10165;42.662;23.260;2023-02-12T05:04:13;95014.28;;;3.91;40.25
20009;BME280;10165;42.662;23.260;2023-02-12T05:06:41;95016.13;;;3.32;40.62
20009;BME280;10165;42.662;23.260;2023-02-12T05:09:11;95013.94;;;3.40;41.27
20009;BME280;10165;42.662;23.260;2023-02-12T05:11:38;95016.00;;;3.14;41.86
20009;BME280;10165;42.662;23.260;2023-02-12T05:14:05;95027.09;;;2.67;41.33
20009;BME280;10165;42.662;23.260;2023-02-12T05:16:31;95031.16;;;2.93;41.79
20009;BME280;10165;42.662;23.260;2023-02-12T05:18:58;95040.69;;;3.62;41.23
20009;BME280;10165;42.662;23.260;2023-02-12T05:21:25;95035.00;;;2.72;43.09
20009;BME280;10165;42.662;23.260;2023-02-12T05:23:51;95042.72;;;2.53;43.88
20009;BME280;10165;42.662;23.260;2023-02-12T05:26:20;95043.09;;;2.80;44.59
20009;BME280;10165;42.662;23.260;2023-02-12T05:28:47;95060.97;;;2.39;45.86
20009;BME280;10165;42.662;23.260;2023-02-12T05:31:17;95058.13;;;2.26;46.52
20009;BME280;10165;42.662;23.260;2023-02-12T05:33:48;95054.19;;;2.18;47.65
20009;BME280;10165;42.662;23.260;2023-02-12T05:36:20;95065.56;;;1.88;48.65
20009;BME280;10165;42.662;23.260;2023-02-12T05:38:51;95063.75;;;1.28;50.64
20009;BME280;10165;42.662;23.260;2023-02-12T05:41:20;95073.25;;;1.65;49.91
20009;BME280;10165;42.662;23.260;2023-02-12T05:43:48;95072.72;;;1.63;50.24
20009;BME280;10165;42.662;23.260;2023-02-12T05:46:17;95064.03;;;1.62;50.50
20009;BME280;10165;42.662;23.260;2023-02-12T05:48:45;95072.19;;;1.66;50.24
20009;BME280;10165;42.662;23.260;2023-02-12T05:51:19;95070.56;;;2.10;49.72
20009;BME280;10165;42.662;23.260;2023-02-12T05:53:48;95073.22;;;1.90;50.74
20009;BME280;10165;42.662;23.260;2023-02-12T05:56:18;95071.38;;;1.80;50.51
20009;BME280;10165;42.662;23.260;2023-02-12T05:58:48;95082.16;;;1.94;51.75
20009;BME280;10165;42.662;23.260;2023-02-12T06:01:20;95074.00;;;1.90;52.85
20009;BME280;10165;42.662;23.260;2023-02-12T06:03:47;95080.84;;;1.76;53.64
20009;BME280;10165;42.662;23.260;2023-02-12T06:06:14;95093.19;;;2.11;53.35
20009;BME280;10165;42.662;23.260;2023-02-12T06:08:41;95085.88;;;1.63;54.55
20009;BME280;10165;42.662;23.260;2023-02-12T06:11:12;95088.50;;;1.58;55.16
20009;BME280;10165;42.662;23.260;2023-02-12T06:13:39;95083.78;;;1.55;55.96
20009;BME280;10165;42.662;23.260;2023-02-12T06:16:06;95072.72;;;1.58;55.93
20009;BME280;10165;42.662;23.260;2023-02-12T06:18:34;95078.75;;;1.78;55.63
20009;BME280;10165;42.662;23.260;2023-02-12T06:21:02;95090.59;;;1.86;55.56
20009;BME280;10165;42.662;23.260;2023-02-12T06:23:29;95075.56;;;2.02;56.02
20009;BME280;10165;42.662;23.260;2023-02-12T06:25:56;95084.00;;;1.93;57.40
20009;BME280;10165;42.662;23.260;2023-02-12T06:28:23;95079.28;;;1.85;58.00
20009;BME280;10165;42.662;23.260;2023-02-12T06:30:50;95071.41;;;1.50;61.40
20009;BME280;10165;42.662;23.260;2023-02-12T06:33:17;95079.03;;;1.72;60.67
20009;BME280;10165;42.662;23.260;2023-02-12T06:35:44;95077.19;;;1.52;61.40
20009;BME280;10165;42.662;23.260;2023-02-12T06:38:10;95073.78;;;1.57;60.79
20009;BME280;10165;42.662;23.260;2023-02-12T06:40:37;95068.50;;;1.26;62.16
20009;BME280;10165;42.662;23.260;2023-02-12T06:43:04;95081.16;;;1.60;61.79
20009;BME280;10165;42.662;23.260;2023-02-12T06:45:32;95080.88;;;1.86;60.99
20009;BME280;10165;42.662;23.260;2023-02-12T06:47:58;95081.66;;;1.82;60.83
20009;BME280;10165;42.662;23.260;2023-02-12T06:50:26;95079.91;;;2.52;59.57
20009;BME280;10165;42.662;23.260;2023-02-12T06:52:52;95084.25;;;1.92;60.52
20009;BME280;10165;42.662;23.260;2023-02-12T06:55:19;95079.25;;;2.01;60.45
20009;BME280;10165;42.662;23.260;2023-02-12T06:57:46;95086.53;;;2.49;58.59
20009;BME280;10165;42.662;23.260;2023-02-12T07:00:13;95080.72;;;3.01;56.53
20009;BME280;10165;42.662;23.260;2023-02-12T07:02:40;95080.97;;;2.51;57.54
20009;BME280;10165;42.662;23.260;2023-02-12T07:05:07;95083.00;;;2.69;57.50
20009;BME280;10165;42.662;23.260;2023-02-12T07:07:33;95080.81;;;2.86;56.76
20009;BME280;10165;42.662;23.260;2023-02-12T07:10:00;95081.63;;;2.81;56.68
20009;BME280;10165;42.662;23.260;2023-02-12T07:12:27;95077.22;;;2.62;57.07
20009;BME280;10165;42.662;23.260;2023-02-12T07:14:53;95077.69;;;2.79;56.75
20009;BME280;10165;42.662;23.260;2023-02-12T07:17:20;95078.72;;;3.27;55.75
20009;BME280;10165;42.662;23.260;2023-02-12T07:19:47;95076.94;;;3.17;55.44
20009;BME280;10165;42.662;23.260;2023-02-12T07:22:13;95070.59;;;3.18;55.16
20009;BME280;10165;42.662;23.260;2023-02-12T07:24:40;95076.16;;;2.63;56.44
20009;BME280;10165;42.662;23.260;2023-02-12T07:27:07;95071.88;;;2.82;56.69
20009;BME280;10165;42.662;23.260;2023-02-12T07:29:33;95077.88;;;2.87;56.42
20009;BME280;10165;42.662;23.260;2023-02-12T07:32:00;95084.03;;;2.73;56.88
20009;BME280;10165;42.662;23.260;2023-02-12T07:34:27;95081.22;;;3.03;55.84
20009;BME280;10165;42.662;23.260;2023-02-12T07:36:53;95081.19;;;3.13;55.26
20009;BME280;10165;42.662;23.260;2023-02-12T07:39:20;95075.03;;;2.79;56.25
20009;BME280;10165;42.662;23.260;2023-02-12T07:41:47;95087.03;;;2.51;56.70
20009;BME280;10165;42.662;23.260;2023-02-12T07:44:14;95085.78;;;2.98;56.28
20009;BME280;10165;42.662;23.260;2023-02-12T07:46:45;95086.94;;;3.25;55.41
20009;BME280;10165;42.662;23.260;2023-02-12T07:49:16;95097.38;;;3.41;54.57
20009;BME280;10165;42.662;23.260;2023-02-12T07:51:44;95106.97;;;2.72;56.38
20009;BME280;10165;42.662;23.260;2023-02-12T07:54:11;95110.72;;;2.61;57.66
20009;BME280;10165;42.662;23.260;2023-02-12T07:56:39;95111.00;;;2.60;58.02
20009;BME280;10165;42.662;23.260;2023-02-12T07:59:10;95103.28;;;3.61;55.46
20009;BME280;10165;42.662;23.260;2023-02-12T08:01:40;95104.91;;;3.57;55.19
20009;BME280;10165;42.662;23.260;2023-02-12T08:04:10;95104.38;;;3.60;55.48
20009;BME280;10165;42.662;23.260;2023-02-12T08:06:50;95110.88;;;2.90;57.20
20009;BME280;10165;42.662;23.260;2023-02-12T08:09:20;95120.25;;;2.52;58.93
20009;BME280;10165;42.662;23.260;2023-02-12T08:11:47;95115.53;;;2.39;59.79
20009;BME280;10165;42.662;23.260;2023-02-12T08:14:16;95107.34;;;2.46;59.59
20009;BME280;10165;42.662;23.260;2023-02-12T08:16:44;95113.41;;;3.10;58.00
20009;BME280;10165;42.662;23.260;2023-02-12T08:19:12;95112.00;;;3.23;57.59
20009;BME280;10165;42.662;23.260;2023-02-12T08:21:49;95110.94;;;3.24;57.50
20009;BME280;10165;42.662;23.260;2023-02-12T08:24:16;95120.97;;;3.27;57.78
20009;BME280;10165;42.662;23.260;2023-02-12T08:26:42;95121.38;;;3.00;58.04
20009;BME280;10165;42.662;23.260;2023-02-12T08:29:12;95124.81;;;3.45;57.89
20009;BME280;10165;42.662;23.260;2023-02-12T08:31:42;95122.63;;;3.13;57.84
20009;BME280;10165;42.662;23.260;2023-02-12T08:34:20;95131.75;;;2.81;58.75
20009;BME280;10165;42.662;23.260;2023-02-12T08:36:49;95131.28;;;3.18;58.06
20009;BME280;10165;42.662;23.260;2023-02-12T08:39:16;95138.38;;;2.69;59.06
20009;BME280;10165;42.662;23.260;2023-02-12T08:41:43;95131.91;;;3.00;58.90
20009;BME280;10165;42.662;23.260;2023-02-12T08:44:11;95146.63;;;2.42;59.93
20009;BME280;10165;42.662;23.260;2023-02-12T08:46:42;95146.03;;;2.70;59.53
20009;BME280;10165;42.662;23.260;2023-02-12T08:49:14;95153.00;;;3.10;58.66
20009;BME280;10165;42.662;23.260;2023-02-12T08:51:46;95147.94;;;3.19;57.96
20009;BME280;10165;42.662;23.260;2023-02-12T08:54:19;95155.03;;;3.28;57.88
20009;BME280;10165;42.662;23.260;2023-02-12T08:56:46;95149.28;;;3.11;58.45
20009;BME280;10165;42.662;23.260;2023-02-12T08:59:14;95153.56;;;3.02;58.91
20009;BME280;10165;42.662;23.260;2023-02-12T09:01:42;95155.44;;;2.92;58.78
20009;BME280;10165;42.662;23.260;2023-02-12T09:04:21;95161.00;;;2.90;59.45
20009;BME280;10165;42.662;23.260;2023-02-12T09:06:49;95156.72;;;3.04;58.90
20009;BME280;10165;42.662;23.260;2023-02-12T09:09:16;95165.56;;;3.28;58.26
20009;BME280;10165;42.662;23.260;2023-02-12T09:11:43;95168.97;;;3.78;57.58
20009;BME280;10165;42.662;23.260;2023-02-12T09:14:13;95168.28;;;3.13;58.77
20009;BME280;10165;42.662;23.260;2023-02-12T09:16:42;95180.03;;;2.82;59.63
20009;BME280;10165;42.662;23.260;2023-02-12T09:19:12;95174.69;;;3.02;59.70
20009;BME280;10165;42.662;23.260;2023-02-12T09:21:39;95183.97;;;2.84;60.19
20009;BME280;10165;42.662;23.260;2023-02-12T09:24:06;95183.41;;;2.87;59.59
20009;BME280;10165;42.662;23.260;2023-02-12T09:26:33;95181.88;;;2.81;60.23
20009;BME280;10165;42.662;23.260;2023-02-12T09:29:03;95182.13;;;2.85;60.12
20009;BME280;10165;42.662;23.260;2023-02-12T09:31:31;95183.03;;;3.14;59.87
20009;BME280;10165;42.662;23.260;2023-02-12T09:34:03;95174.06;;;3.20;59.78
20009;BME280;10165;42.662;23.260;2023-02-12T09:36:31;95174.13;;;3.10;60.27
20009;BME280;10165;42.662;23.260;2023-02-12T09:38:58;95175.91;;;3.15;59.91
20009;BME280;10165;42.662;23.260;2023-02-12T09:47:24;95183.88;;;3.64;58.17
20009;BME280;10165;42.662;23.260;2023-02-12T09:49:55;95177.22;;;3.22;59.82
20009;BME280;10165;42.662;23.260;2023-02-12T09:52:27;95189.41;;;3.13;59.79
20009;BME280;10165;42.662;23.260;2023-02-12T09:54:55;95189.19;;;3.00;60.47
20009;BME280;10165;42.662;23.260;2023-02-12T09:57:29;95189.28;;;2.79;60.41
20009;BME280;10165;42.662;23.260;2023-02-12T10:02:29;95200.59;;;2.80;61.72
20009;BME280;10165;42.662;23.260;2023-02-12T10:04:56;95193.84;;;2.28;62.64
20009;BME280;10165;42.662;23.260;2023-02-12T10:15:37;95200.44;;;2.16;63.05
20009;BME280;10165;42.662;23.260;2023-02-12T10:26:21;95191.75;;;3.15;61.65
20009;BME280;10165;42.662;23.260;2023-02-12T10:28:51;95180.88;;;2.67;62.44
20009;BME280;10165;42.662;23.260;2023-02-12T10:31:29;95182.63;;;2.92;61.75
20009;BME280;10165;42.662;23.260;2023-02-12T10:33:57;95181.00;;;3.01;62.25
20009;BME280;10165;42.662;23.260;2023-02-12T10:36:38;95190.34;;;3.37;61.04
20009;BME280;10165;42.662;23.260;2023-02-12T10:44:20;95192.13;;;4.54;58.13
20009;BME280;10165;42.662;23.260;2023-02-12T10:46:47;95187.28;;;4.61;57.68
20009;BME280;10165;42.662;23.260;2023-02-12T10:49:15;95200.09;;;4.20;57.80
20009;BME280;10165;42.662;23.260;2023-02-12T10:54:48;95197.34;;;3.62;59.77
20009;BME280;10165;42.662;23.260;2023-02-12T10:57:25;95186.19;;;4.09;58.91
20009;BME280;10165;42.662;23.260;2023-02-12T10:59:54;95193.88;;;4.34;58.74
20009;BME280;10165;42.662;23.260;2023-02-12T11:02:31;95188.75;;;4.72;57.88
20009;BME280;10165;42.662;23.260;2023-02-12T11:05:01;95193.03;;;4.10;58.70
20009;BME280;10165;42.662;23.260;2023-02-12T11:07:49;95191.28;;;3.57;60.21
20009;BME280;10165;42.662;23.260;2023-02-12T11:10:39;95194.09;;;3.75;59.94
20009;BME280;10165;42.662;23.260;2023-02-12T11:13:23;95192.75;;;3.78;60.14
20009;BME280;10165;42.662;23.260;2023-02-12T11:15:51;95194.09;;;3.75;60.26
20009;BME280;10165;42.662;23.260;2023-02-12T11:18:22;95190.88;;;4.17;58.97
20009;BME280;10165;42.662;23.260;2023-02-12T11:23:36;95195.59;;;4.78;57.40
20009;BME280;10165;42.662;23.260;2023-02-12T11:29:04;95190.09;;;3.78;60.04
20009;BME280;10165;42.662;23.260;2023-02-12T11:31:59;95191.56;;;4.28;58.50
20009;BME280;10165;42.662;23.260;2023-02-12T11:34:26;95188.97;;;4.52;58.53
20009;BME280;10165;42.662;23.260;2023-02-12T11:36:55;95187.66;;;4.20;59.63
20009;BME280;10165;42.662;23.260;2023-02-12T11:39:26;95183.34;;;4.29;59.29
20009;BME280;10165;42.662;23.260;2023-02-12T11:42:17;95193.66;;;4.31;58.53
20009;BME280;10165;42.662;23.260;2023-02-12T11:44:54;95189.94;;;4.32;58.73
20009;BME280;10165;42.662;23.260;2023-02-12T11:47:28;95189.19;;;3.98;58.43
20009;BME280;10165;42.662;23.260;2023-02-12T11:52:28;95184.56;;;4.13;58.78
20009;BME280;10165;42.662;23.260;2023-02-12T11:55:00;95178.91;;;4.25;58.59
20009;BME280;10165;42.662;23.260;2023-02-12T11:57:46;95180.81;;;4.14;58.33
20009;BME280;10165;42.662;23.260;2023-02-12T12:00:21;95186.97;;;4.39;58.52
20009;BME280;10165;42.662;23.260;2023-02-12T12:06:16;95190.22;;;4.83;57.42
20009;BME280;10165;42.662;23.260;2023-02-12T12:11:56;95194.06;;;4.72;57.44
20009;BME280;10165;42.662;23.260;2023-02-12T12:14:42;95197.22;;;4.16;58.08
20009;BME280;10165;42.662;23.260;2023-02-12T12:17:53;95200.06;;;4.25;57.90
20009;BME280;10165;42.662;23.260;2023-02-12T12:20:44;95202.50;;;4.45;57.50
20009;BME280;10165;42.662;23.260;2023-02-12T12:23:19;95191.59;;;5.04;56.35
20009;BME280;10165;42.662;23.260;2023-02-12T12:25:50;95202.06;;;4.91;55.66
20009;BME280;10165;42.662;23.260;2023-02-12T12:28:42;95203.31;;;4.98;55.57
20009;BME280;10165;42.662;23.260;2023-02-12T12:31:33;95201.91;;;5.48;54.27
20009;BME280;10165;42.662;23.260;2023-02-12T12:34:09;95206.81;;;5.17;54.86
20009;BME280;10165;42.662;23.260;2023-02-12T12:36:55;95199.38;;;5.38;54.27
20009;BME280;10165;42.662;23.260;2023-02-12T12:39:31;95201.19;;;5.43;54.66
20009;BME280;10165;42.662;23.260;2023-02-12T12:42:24;95201.66;;;5.26;54.21
20009;BME280;10165;42.662;23.260;2023-02-12T12:47:39;95211.28;;;5.41;54.04
20009;BME280;10165;42.662;23.260;2023-02-12T12:53:26;95215.25;;;5.62;53.30
20009;BME280;10165;42.662;23.260;2023-02-12T12:58:59;95229.63;;;5.56;54.25
20009;BME280;10165;42.662;23.260;2023-02-12T13:12:34;95228.84;;;5.98;52.92
20009;BME280;10165;42.662;23.260;2023-02-12T13:17:37;95233.16;;;5.27;54.04
20009;BME280;10165;42.662;23.260;2023-02-12T13:25:54;95239.25;;;5.70;53.95
20009;BME280;10165;42.662;23.260;2023-02-12T13:28:37;95239.06;;;5.43;54.53
20009;BME280;10165;42.662;23.260;2023-02-12T13:31:13;95247.91;;;5.10;55.97
20009;BME280;10165;42.662;23.260;2023-02-12T13:34:01;95250.06;;;5.08;56.31
20009;BME280;10165;42.662;23.260;2023-02-12T13:36:29;95237.41;;;5.28;56.00
20009;BME280;10165;42.662;23.260;2023-02-12T13:39:12;95243.53;;;4.71;56.64
20009;BME280;10165;42.662;23.260;2023-02-12T13:41:46;95246.38;;;5.33;55.71
20009;BME280;10165;42.662;23.260;2023-02-12T13:44:29;95249.72;;;5.38;55.35
20009;BME280;10165;42.662;23.260;2023-02-12T13:52:39;95256.81;;;4.38;58.06
20009;BME280;10165;42.662;23.260;2023-02-12T13:55:32;95264.06;;;4.56;58.21
20009;BME280;10165;42.662;23.260;2023-02-12T14:01:03;95256.13;;;4.85;56.94
20009;BME280;10165;42.662;23.260;2023-02-12T14:03:30;95255.31;;;5.13;56.96
20009;BME280;10165;42.662;23.260;2023-02-12T14:13:23;95269.34;;;5.13;55.77
20009;BME280;10165;42.662;23.260;2023-02-12T14:15:56;95272.84;;;5.09;55.87
20009;BME280;10165;42.662;23.260;2023-02-12T14:18:28;95279.72;;;5.34;55.70
20009;BME280;10165;42.662;23.260;2023-02-12T14:23:40;95289.44;;;5.14;55.30
20009;BME280;10165;42.662;23.260;2023-02-12T14:33:49;95294.94;;;5.23;55.76
20009;BME280;10165;42.662;23.260;2023-02-12T14:41:49;95306.00;;;5.72;54.14
20009;BME280;10165;42.662;23.260;2023-02-12T14:46:50;95311.19;;;5.40;54.58
20009;BME280;10165;42.662;23.260;2023-02-12T14:49:26;95321.53;;;5.60;54.49
20009;BME280;10165;42.662;23.260;2023-02-12T14:54:49;95320.00;;;5.78;53.63
20009;BME280;10165;42.662;23.260;2023-02-12T14:59:56;95327.06;;;5.40;54.47
20009;BME280;10165;42.662;23.260;2023-02-12T15:02:25;95320.00;;;5.78;53.73
20009;BME280;10165;42.662;23.260;2023-02-12T15:05:04;95337.50;;;5.03;55.44
20009;BME280;10165;42.662;23.260;2023-02-12T15:07:38;95338.38;;;4.93;55.88
20009;BME280;10165;42.662;23.260;2023-02-12T15:10:12;95341.72;;;4.75;55.94
20009;BME280;10165;42.662;23.260;2023-02-12T15:15:42;95354.63;;;5.10;55.14
20009;BME280;10165;42.662;23.260;2023-02-12T15:18:12;95353.00;;;5.67;54.32
20009;BME280;10165;42.662;23.260;2023-02-12T15:20:51;95363.88;;;5.65;54.36
20009;BME280;10165;42.662;23.260;2023-02-12T15:25:59;95382.50;;;5.84;54.29
20009;BME280;10165;42.662;23.260;2023-02-12T15:28:31;95386.28;;;5.78;54.49
20009;BME280;10165;42.662;23.260;2023-02-12T15:31:02;95392.47;;;5.97;54.18
20009;BME280;10165;42.662;23.260;2023-02-12T15:33:32;95394.59;;;5.95;54.64
20009;BME280;10165;42.662;23.260;2023-02-12T15:36:01;95401.47;;;5.96;54.17
20009;BME280;10165;42.662;23.260;2023-02-12T15:38:34;95399.41;;;5.64;54.76
20009;BME280;10165;42.662;23.260;2023-02-12T15:41:03;95411.03;;;5.97;54.62
20009;BME280;10165;42.662;23.260;2023-02-12T15:43:32;95412.56;;;5.74;54.85
20009;BME280;10165;42.662;23.260;2023-02-12T15:46:03;95404.72;;;5.64;55.12
20009;BME280;10165;42.662;23.260;2023-02-12T15:48:33;95408.53;;;5.53;55.70
20009;BME280;10165;42.662;23.260;2023-02-12T15:51:26;95411.94;;;5.59;54.93
20009;BME280;10165;42.662;23.260;2023-02-12T15:53:57;95410.22;;;5.68;55.23
20009;BME280;10165;42.662;23.260;2023-02-12T15:56:26;95414.66;;;5.49;55.04